sensor_id;sensor_type;location;lat;lon;timestamp;temperature;humidity
57030;DHT22;42920;45.306;20.448;2023-06-22T00:00:55;665.60;2432.00
57030;DHT22;42920;45.306;20.448;2023-06-22T00:03:23;665.60;2432.00
57030;DHT22;42920;45.306;20.448;2023-06-22T00:05:49;640.90;2432.00
57030;DHT22;42920;45.306;20.448;2023-06-22T00:08:16;640.80;2432.00
57030;DHT22;42920;45.306;20.448;2023-06-22T00:10:42;665.60;2432.00
57030;DHT22;42920;45.306;20.448;2023-06-22T00:13:08;665.60;2432.00
57030;DHT22;42920;45.306;20.448;2023-06-22T00:15:35;640.80;2432.00
57030;DHT22;42920;45.306;20.448;2023-06-22T00:18:01;640.70;2432.00
57030;DHT22;42920;45.306;20.448;2023-06-22T00:49:48;640.70;2432.00
57030;DHT22;42920;45.306;20.448;2023-06-22T00:52:17;640.50;2432.00
57030;DHT22;42920;45.306;20.448;2023-06-22T00:54:50;640.50;2432.00
57030;DHT22;42920;45.306;20.448;2023-06-22T00:57:17;640.40;2432.00
57030;DHT22;42920;45.306;20.448;2023-06-22T00:59:45;640.40;2432.00
57030;DHT22;42920;45.306;20.448;2023-06-22T01:02:11;640.50;2432.00
57030;DHT22;42920;45.306;20.448;2023-06-22T01:04:38;640.50;2432.00
57030;DHT22;42920;45.306;20.448;2023-06-22T01:07:33;640.20;2432.00
57030;DHT22;42920;45.306;20.448;2023-06-22T01:12:45;615.10;2432.00
57030;DHT22;42920;45.306;20.448;2023-06-22T01:15:36;640.00;2432.00
57030;DHT22;42920;45.306;20.448;2023-06-22T01:18:04;640.10;2432.00
57030;DHT22;42920;45.306;20.448;2023-06-22T01:20:33;640.00;2432.00
57030;DHT22;42920;45.306;20.448;2023-06-22T01:23:02;640.00;2432.00
57030;DHT22;42920;45.306;20.448;2023-06-22T01:25:53;640.10;2432.00
57030;DHT22;42920;45.306;20.448;2023-06-22T01:28:36;640.40;2432.00
57030;DHT22;42920;45.306;20.448;2023-06-22T01:31:03;640.50;2432.00
57030;DHT22;42920;45.306;20.448;2023-06-22T01:33:35;640.50;2432.00
57030;DHT22;42920;45.306;20.448;2023-06-22T01:36:03;640.60;2432.00
57030;DHT22;42920;45.306;20.448;2023-06-22T01:38:30;640.70;2432.00
57030;DHT22;42920;45.306;20.448;2023-06-22T01:40:57;640.90;2432.00
57030;DHT22;42920;45.306;20.448;2023-06-22T01:43:26;640.50;2432.00
57030;DHT22;42920;45.306;20.448;2023-06-22T01:45:56;640.50;2432.00
57030;DHT22;42920;45.306;20.448;2023-06-22T01:48:23;640.50;2432.00
57030;DHT22;42920;45.306;20.448;2023-06-22T01:50:49;640.40;2432.00
57030;DHT22;42920;45.306;20.448;2023-06-22T01:53:15;640.10;2432.00
57030;DHT22;42920;45.306;20.448;2023-06-22T01:55:41;640.10;2432.00
57030;DHT22;42920;45.306;20.448;2023-06-22T01:58:06;615.30;2432.00
57030;DHT22;42920;45.306;20.448;2023-06-22T02:00:37;615.20;2432.00
57030;DHT22;42920;45.306;20.448;2023-06-22T02:03:10;615.10;2432.00
57030;DHT22;42920;45.306;20.448;2023-06-22T02:05:46;615.10;2432.00
57030;DHT22;42920;45.306;20.448;2023-06-22T02:08:20;615.10;2432.00
57030;DHT22;42920;45.306;20.448;2023-06-22T02:10:47;615.00;2432.00
57030;DHT22;42920;45.306;20.448;2023-06-22T02:13:14;615.00;2432.00
57030;DHT22;42920;45.306;20.448;2023-06-22T02:15:40;615.10;2432.00
57030;DHT22;42920;45.306;20.448;2023-06-22T02:18:07;615.10;2432.00
57030;DHT22;42920;45.306;20.448;2023-06-22T02:20:32;615.10;2432.00
57030;DHT22;42920;45.306;20.448;2023-06-22T02:23:01;615.00;2432.00
57030;DHT22;42920;45.306;20.448;2023-06-22T02:25:27;615.00;2432.00
57030;DHT22;42920;45.306;20.448;2023-06-22T02:27:52;614.90;2432.00
57030;DHT22;42920;45.306;20.448;2023-06-22T02:30:18;614.90;2432.00
57030;DHT22;42920;45.306;20.448;2023-06-22T02:32:44;614.90;2432.00
57030;DHT22;42920;45.306;20.448;2023-06-22T02:35:10;614.90;2432.00
57030;DHT22;42920;45.306;20.448;2023-06-22T02:37:36;614.80;2432.00
57030;DHT22;42920;45.306;20.448;2023-06-22T02:40:07;614.80;2432.00
57030;DHT22;42920;45.306;20.448;2023-06-22T02:42:35;614.80;2432.00
57030;DHT22;42920;45.306;20.448;2023-06-22T02:45:01;614.80;2432.00
57030;DHT22;42920;45.306;20.448;2023-06-22T02:47:26;614.70;2432.00
57030;DHT22;42920;45.306;20.448;2023-06-22T02:49:52;614.50;2432.00
57030;DHT22;42920;45.306;20.448;2023-06-22T02:52:18;614.40;2432.00
57030;DHT22;42920;45.306;20.448;2023-06-22T02:54:43;589.70;2432.00
57030;DHT22;42920;45.306;20.448;2023-06-22T02:57:11;589.70;2432.00
57030;DHT22;42920;45.306;20.448;2023-06-22T02:59:42;589.60;2432.00
57030;DHT22;42920;45.306;20.448;2023-06-22T03:02:08;589.60;2432.00
57030;DHT22;42920;45.306;20.448;2023-06-22T03:04:35;589.50;2432.00
57030;DHT22;42920;45.306;20.448;2023-06-22T03:07:01;589.50;2432.00
57030;DHT22;42920;45.306;20.448;2023-06-22T03:09:27;589.40;2432.00
57030;DHT22;42920;45.306;20.448;2023-06-22T03:11:54;589.40;2432.00
57030;DHT22;42920;45.306;20.448;2023-06-22T03:14:19;589.40;2432.00
57030;DHT22;42920;45.306;20.448;2023-06-22T03:16:45;589.40;2432.00
57030;DHT22;42920;45.306;20.448;2023-06-22T03:19:11;589.30;2432.00
57030;DHT22;42920;45.306;20.448;2023-06-22T03:21:37;589.30;2432.00
57030;DHT22;42920;45.306;20.448;2023-06-22T03:24:04;589.30;2432.00
57030;DHT22;42920;45.306;20.448;2023-06-22T03:26:30;589.30;2432.00
57030;DHT22;42920;45.306;20.448;2023-06-22T03:28:56;589.30;2432.00
57030;DHT22;42920;45.306;20.448;2023-06-22T03:31:22;589.30;2432.00
57030;DHT22;42920;45.306;20.448;2023-06-22T03:33:49;589.40;2432.00
57030;DHT22;42920;45.306;20.448;2023-06-22T03:36:15;589.30;2432.00
57030;DHT22;42920;45.306;20.448;2023-06-22T03:38:45;589.30;2432.00
57030;DHT22;42920;45.306;20.448;2023-06-22T03:41:11;589.20;2432.00
57030;DHT22;42920;45.306;20.448;2023-06-22T03:43:37;589.20;2432.00
57030;DHT22;42920;45.306;20.448;2023-06-22T03:46:03;589.00;2432.00
57030;DHT22;42920;45.306;20.448;2023-06-22T03:48:29;589.00;2432.00
57030;DHT22;42920;45.306;20.448;2023-06-22T03:50:54;589.00;2432.00
57030;DHT22;42920;45.306;20.448;2023-06-22T03:53:20;589.00;2432.00
57030;DHT22;42920;45.306;20.448;2023-06-22T03:55:51;589.10;2432.00
57030;DHT22;42920;45.306;20.448;2023-06-22T03:58:18;589.20;2432.00
57030;DHT22;42920;45.306;20.448;2023-06-22T04:00:45;589.20;2432.00
57030;DHT22;42920;45.306;20.448;2023-06-22T04:03:12;589.30;2432.00
57030;DHT22;42920;45.306;20.448;2023-06-22T04:05:39;589.40;2432.00
57030;DHT22;42920;45.306;20.448;2023-06-22T04:08:05;589.40;2432.00
57030;DHT22;42920;45.306;20.448;2023-06-22T04:10:31;589.50;2432.00
57030;DHT22;42920;45.306;20.448;2023-06-22T04:12:56;589.50;2432.00
57030;DHT22;42920;45.306;20.448;2023-06-22T04:15:22;589.60;2432.00
57030;DHT22;42920;45.306;20.448;2023-06-22T04:17:48;589.60;2432.00
57030;DHT22;42920;45.306;20.448;2023-06-22T04:20:13;589.60;2432.00
57030;DHT22;42920;45.306;20.448;2023-06-22T04:22:39;589.60;2432.00
57030;DHT22;42920;45.306;20.448;2023-06-22T04:25:06;589.70;2432.00
57030;DHT22;42920;45.306;20.448;2023-06-22T04:27:33;614.50;2432.00
57030;DHT22;42920;45.306;20.448;2023-06-22T04:30:03;614.50;2432.00
57030;DHT22;42920;45.306;20.448;2023-06-22T04:32:29;614.60;2432.00
57030;DHT22;42920;45.306;20.448;2023-06-22T04:34:55;614.70;2432.00
57030;DHT22;42920;45.306;20.448;2023-06-22T04:37:20;614.80;2432.00
57030;DHT22;42920;45.306;20.448;2023-06-22T04:39:49;614.90;2432.00
57030;DHT22;42920;45.306;20.448;2023-06-22T04:42:15;614.90;2432.00
57030;DHT22;42920;45.306;20.448;2023-06-22T04:44:41;614.90;2432.00
57030;DHT22;42920;45.306;20.448;2023-06-22T04:47:07;614.90;2432.00
57030;DHT22;42920;45.306;20.448;2023-06-22T04:49:36;615.00;2432.00
57030;DHT22;42920;45.306;20.448;2023-06-22T04:52:13;615.10;2432.00
57030;DHT22;42920;45.306;20.448;2023-06-22T04:54:40;615.20;2432.00
57030;DHT22;42920;45.306;20.448;2023-06-22T04:57:13;615.30;2432.00
57030;DHT22;42920;45.306;20.448;2023-06-22T04:59:40;615.20;2432.00
57030;DHT22;42920;45.306;20.448;2023-06-22T05:02:07;615.30;2432.00
57030;DHT22;42920;45.306;20.448;2023-06-22T05:04:34;615.30;2432.00
57030;DHT22;42920;45.306;20.448;2023-06-22T05:07:02;640.00;2432.00
57030;DHT22;42920;45.306;20.448;2023-06-22T05:09:31;640.00;2432.00
57030;DHT22;42920;45.306;20.448;2023-06-22T05:11:56;640.20;2432.00
57030;DHT22;42920;45.306;20.448;2023-06-22T05:14:22;640.20;2432.00
57030;DHT22;42920;45.306;20.448;2023-06-22T05:16:49;640.40;2432.00
57030;DHT22;42920;45.306;20.448;2023-06-22T05:19:15;640.50;2432.00
57030;DHT22;42920;45.306;20.448;2023-06-22T05:21:40;640.60;2432.00
57030;DHT22;42920;45.306;20.448;2023-06-22T05:24:06;640.70;2432.00
57030;DHT22;42920;45.306;20.448;2023-06-22T05:26:34;640.80;2432.00
57030;DHT22;42920;45.306;20.448;2023-06-22T05:29:01;640.90;2432.00
57030;DHT22;42920;45.306;20.448;2023-06-22T05:31:28;665.60;2432.00
57030;DHT22;42920;45.306;20.448;2023-06-22T05:33:54;665.60;2432.00
57030;DHT22;42920;45.306;20.448;2023-06-22T05:36:20;665.70;2432.00
57030;DHT22;42920;45.306;20.448;2023-06-22T05:38:49;665.90;2432.00
57030;DHT22;42920;45.306;20.448;2023-06-22T05:41:14;665.90;2432.00
57030;DHT22;42920;45.306;20.448;2023-06-22T05:43:40;666.00;2432.00
57030;DHT22;42920;45.306;20.448;2023-06-22T05:46:06;666.00;2432.00
57030;DHT22;42920;45.306;20.448;2023-06-22T05:48:32;666.00;2432.00
57030;DHT22;42920;45.306;20.448;2023-06-22T05:50:57;666.10;2432.00
57030;DHT22;42920;45.306;20.448;2023-06-22T05:53:23;666.20;2432.00
57030;DHT22;42920;45.306;20.448;2023-06-22T05:55:49;666.30;2432.00
57030;DHT22;42920;45.306;20.448;2023-06-22T05:58:15;666.40;2432.00
57030;DHT22;42920;45.306;20.448;2023-06-22T06:00:41;666.50;2432.00
57030;DHT22;42920;45.306;20.448;2023-06-22T06:03:08;691.20;2432.00
57030;DHT22;42920;45.306;20.448;2023-06-22T06:05:34;691.30;2432.00
57030;DHT22;42920;45.306;20.448;2023-06-22T06:08:01;691.30;2432.00
57030;DHT22;42920;45.306;20.448;2023-06-22T06:10:27;691.40;2432.00
57030;DHT22;42920;45.306;20.448;2023-06-22T06:12:55;691.50;2432.00
57030;DHT22;42920;45.306;20.448;2023-06-22T06:15:21;691.30;2432.00
57030;DHT22;42920;45.306;20.448;2023-06-22T06:17:51;691.70;2432.00
57030;DHT22;42920;45.306;20.448;2023-06-22T06:20:19;691.80;2432.00
57030;DHT22;42920;45.306;20.448;2023-06-22T06:22:45;691.90;2432.00
57030;DHT22;42920;45.306;20.448;2023-06-22T06:25:11;692.10;2432.00
57030;DHT22;42920;45.306;20.448;2023-06-22T06:27:44;692.10;2432.00
57030;DHT22;42920;45.306;20.448;2023-06-22T06:30:11;716.80;2432.00
57030;DHT22;42920;45.306;20.448;2023-06-22T06:32:38;716.80;2432.00
57030;DHT22;42920;45.306;20.448;2023-06-22T06:35:05;717.00;2432.00
57030;DHT22;42920;45.306;20.448;2023-06-22T06:37:32;717.10;2432.00
57030;DHT22;42920;45.306;20.448;2023-06-22T06:39:57;717.30;2432.00
57030;DHT22;42920;45.306;20.448;2023-06-22T06:42:23;717.40;2432.00
57030;DHT22;42920;45.306;20.448;2023-06-22T06:44:50;717.40;2432.00
57030;DHT22;42920;45.306;20.448;2023-06-22T06:47:16;717.50;2432.00
57030;DHT22;42920;45.306;20.448;2023-06-22T06:49:42;717.50;2432.00
57030;DHT22;42920;45.306;20.448;2023-06-22T06:52:08;717.50;2432.00
57030;DHT22;42920;45.306;20.448;2023-06-22T06:54:34;717.60;2432.00
57030;DHT22;42920;45.306;20.448;2023-06-22T06:56:59;717.70;2432.00
57030;DHT22;42920;45.306;20.448;2023-06-22T06:59:25;742.40;2432.00
57030;DHT22;42920;45.306;20.448;2023-06-22T07:01:51;742.40;2432.00
57030;DHT22;42920;45.306;20.448;2023-06-22T07:04:16;742.50;2432.00
57030;DHT22;42920;45.306;20.448;2023-06-22T07:06:42;742.60;2432.00
57030;DHT22;42920;45.306;20.448;2023-06-22T07:09:08;742.80;2432.00
57030;DHT22;42920;45.306;20.448;2023-06-22T07:11:34;742.90;2432.00
57030;DHT22;42920;45.306;20.448;2023-06-22T07:14:01;742.90;2432.00
57030;DHT22;42920;45.306;20.448;2023-06-22T07:16:26;743.00;2432.00
57030;DHT22;42920;45.306;20.448;2023-06-22T07:18:53;743.10;2432.00
57030;DHT22;42920;45.306;20.448;2023-06-22T07:21:19;743.20;2432.00
57030;DHT22;42920;45.306;20.448;2023-06-22T07:23:45;743.30;2432.00
57030;DHT22;42920;45.306;20.448;2023-06-22T07:26:10;768.00;2406.40
57030;DHT22;42920;45.306;20.448;2023-06-22T07:28:38;768.10;2432.00
57030;DHT22;42920;45.306;20.448;2023-06-22T07:31:06;768.20;2432.00
57030;DHT22;42920;45.306;20.448;2023-06-22T07:33:32;768.40;2432.00
57030;DHT22;42920;45.306;20.448;2023-06-22T07:35:57;768.40;2432.00
57030;DHT22;42920;45.306;20.448;2023-06-22T07:38:23;768.40;2380.80
57030;DHT22;42920;45.306;20.448;2023-06-22T07:40:49;768.40;2278.40
57030;DHT22;42920;45.306;20.448;2023-06-22T07:43:16;768.60;2278.40
57030;DHT22;42920;45.306;20.448;2023-06-22T07:45:51;768.60;2304.00
57030;DHT22;42920;45.306;20.448;2023-06-22T07:48:23;768.70;2278.40
57030;DHT22;42920;45.306;20.448;2023-06-22T07:50:49;768.80;2252.80
57030;DHT22;42920;45.306;20.448;2023-06-22T07:53:15;768.90;2176.00
57030;DHT22;42920;45.306;20.448;2023-06-22T07:55:40;793.70;2329.60
57030;DHT22;42920;45.306;20.448;2023-06-22T07:58:06;793.70;2073.60
57030;DHT22;42920;45.306;20.448;2023-06-22T08:00:33;793.70;1996.80
57030;DHT22;42920;45.306;20.448;2023-06-22T08:02:59;793.80;1945.60
57030;DHT22;42920;45.306;20.448;2023-06-22T08:05:25;793.90;1894.40
57030;DHT22;42920;45.306;20.448;2023-06-22T08:07:50;794.00;1894.40
57030;DHT22;42920;45.306;20.448;2023-06-22T08:10:16;794.00;1894.40
57030;DHT22;42920;45.306;20.448;2023-06-22T08:12:42;794.00;1843.20
57030;DHT22;42920;45.306;20.448;2023-06-22T08:15:08;794.10;1843.20
57030;DHT22;42920;45.306;20.448;2023-06-22T08:17:36;794.00;1868.80
57030;DHT22;42920;45.306;20.448;2023-06-22T08:20:02;794.20;1792.00
57030;DHT22;42920;45.306;20.448;2023-06-22T08:22:34;794.20;1766.40
57030;DHT22;42920;45.306;20.448;2023-06-22T08:25:02;794.20;1740.80
57030;DHT22;42920;45.306;20.448;2023-06-22T08:27:30;794.30;1843.20
57030;DHT22;42920;45.306;20.448;2023-06-22T08:29:59;794.40;1843.20
57030;DHT22;42920;45.306;20.448;2023-06-22T08:32:29;794.30;1792.00
57030;DHT22;42920;45.306;20.448;2023-06-22T08:34:55;794.40;1817.60
57030;DHT22;42920;45.306;20.448;2023-06-22T08:37:21;794.50;1868.80
57030;DHT22;42920;45.306;20.448;2023-06-22T08:39:50;794.50;1740.80
57030;DHT22;42920;45.306;20.448;2023-06-22T08:42:16;794.50;1715.20
57030;DHT22;42920;45.306;20.448;2023-06-22T08:44:41;794.50;1740.80
57030;DHT22;42920;45.306;20.448;2023-06-22T08:47:07;819.30;1766.40
57030;DHT22;42920;45.306;20.448;2023-06-22T08:49:33;819.30;1766.40
57030;DHT22;42920;45.306;20.448;2023-06-22T08:51:58;819.30;1843.20
57030;DHT22;42920;45.306;20.448;2023-06-22T08:54:24;819.40;1894.40
57030;DHT22;42920;45.306;20.448;2023-06-22T08:56:50;819.50;1766.40
57030;DHT22;42920;45.306;20.448;2023-06-22T08:59:16;819.30;1715.20
57030;DHT22;42920;45.306;20.448;2023-06-22T09:01:41;819.30;1766.40
57030;DHT22;42920;45.306;20.448;2023-06-22T09:04:11;819.30;1766.40
57030;DHT22;42920;45.306;20.448;2023-06-22T09:06:37;819.30;1740.80
57030;DHT22;42920;45.306;20.448;2023-06-22T09:09:10;819.50;1920.00
57030;DHT22;42920;45.306;20.448;2023-06-22T09:11:35;819.60;1792.00
57030;DHT22;42920;45.306;20.448;2023-06-22T09:14:01;819.60;1689.60
57030;DHT22;42920;45.306;20.448;2023-06-22T09:16:27;819.70;1638.40
57030;DHT22;42920;45.306;20.448;2023-06-22T09:18:52;819.80;1715.20
57030;DHT22;42920;45.306;20.448;2023-06-22T09:21:18;819.80;1715.20
57030;DHT22;42920;45.306;20.448;2023-06-22T09:23:44;819.70;1664.00
57030;DHT22;42920;45.306;20.448;2023-06-22T09:26:12;819.80;1817.60
57030;DHT22;42920;45.306;20.448;2023-06-22T09:28:38;819.80;1689.60
57030;DHT22;42920;45.306;20.448;2023-06-22T09:31:05;819.80;1664.00
57030;DHT22;42920;45.306;20.448;2023-06-22T09:33:32;819.80;1587.20
57030;DHT22;42920;45.306;20.448;2023-06-22T09:35:57;819.80;1689.60
57030;DHT22;42920;45.306;20.448;2023-06-22T09:38:23;820.00;1715.20
57030;DHT22;42920;45.306;20.448;2023-06-22T09:40:49;820.00;1561.60
57030;DHT22;42920;45.306;20.448;2023-06-22T09:43:14;820.10;1561.60
57030;DHT22;42920;45.306;20.448;2023-06-22T09:45:40;820.10;1587.20
57030;DHT22;42920;45.306;20.448;2023-06-22T09:48:06;844.80;1612.80
57030;DHT22;42920;45.306;20.448;2023-06-22T09:50:32;844.90;1638.40
57030;DHT22;42920;45.306;20.448;2023-06-22T09:52:57;844.90;1587.20
57030;DHT22;42920;45.306;20.448;2023-06-22T09:55:23;845.00;1587.20
57030;DHT22;42920;45.306;20.448;2023-06-22T09:57:49;845.10;1689.60
57030;DHT22;42920;45.306;20.448;2023-06-22T10:00:16;845.10;1612.80
57030;DHT22;42920;45.306;20.448;2023-06-22T10:02:42;845.30;1587.20
57030;DHT22;42920;45.306;20.448;2023-06-22T10:05:08;845.10;2048.00
57030;DHT22;42920;45.306;20.448;2023-06-22T10:07:34;819.80;2227.20
57030;DHT22;42920;45.306;20.448;2023-06-22T10:10:00;819.60;2432.00
57030;DHT22;42920;45.306;20.448;2023-06-22T10:12:27;819.30;2406.40
57030;DHT22;42920;45.306;20.448;2023-06-22T10:14:53;819.30;2380.80
57030;DHT22;42920;45.306;20.448;2023-06-22T10:17:18;794.50;2278.40
57030;DHT22;42920;45.306;20.448;2023-06-22T10:19:44;794.50;2278.40
57030;DHT22;42920;45.306;20.448;2023-06-22T10:22:10;819.20;2329.60
57030;DHT22;42920;45.306;20.448;2023-06-22T10:24:35;819.20;2380.80
57030;DHT22;42920;45.306;20.448;2023-06-22T10:27:01;819.20;2406.40
57030;DHT22;42920;45.306;20.448;2023-06-22T10:29:27;819.20;2355.20
57030;DHT22;42920;45.306;20.448;2023-06-22T10:31:52;819.50;2432.00
57030;DHT22;42920;45.306;20.448;2023-06-22T10:34:18;819.60;2406.40
57030;DHT22;42920;45.306;20.448;2023-06-22T10:36:44;819.50;2252.80
57030;DHT22;42920;45.306;20.448;2023-06-22T10:39:12;819.50;2432.00
57030;DHT22;42920;45.306;20.448;2023-06-22T10:41:38;819.60;2329.60
57030;DHT22;42920;45.306;20.448;2023-06-22T10:44:04;819.70;2432.00
57030;DHT22;42920;45.306;20.448;2023-06-22T10:46:29;819.60;2176.00
57030;DHT22;42920;45.306;20.448;2023-06-22T10:48:55;819.70;2278.40
57030;DHT22;42920;45.306;20.448;2023-06-22T10:51:22;819.80;2329.60
57030;DHT22;42920;45.306;20.448;2023-06-22T10:53:48;819.80;2176.00
57030;DHT22;42920;45.306;20.448;2023-06-22T10:56:13;819.60;2201.60
57030;DHT22;42920;45.306;20.448;2023-06-22T10:58:39;819.70;2355.20
57030;DHT22;42920;45.306;20.448;2023-06-22T11:01:05;819.80;2329.60
57030;DHT22;42920;45.306;20.448;2023-06-22T11:03:30;820.10;2227.20
57030;DHT22;42920;45.306;20.448;2023-06-22T11:05:56;819.80;2124.80
57030;DHT22;42920;45.306;20.448;2023-06-22T11:08:22;820.00;2124.80
57030;DHT22;42920;45.306;20.448;2023-06-22T11:10:47;820.10;2227.20
57030;DHT22;42920;45.306;20.448;2023-06-22T11:13:13;819.70;2278.40
57030;DHT22;42920;45.306;20.448;2023-06-22T11:15:40;819.80;2176.00
57030;DHT22;42920;45.306;20.448;2023-06-22T11:18:05;819.80;2227.20
57030;DHT22;42920;45.306;20.448;2023-06-22T11:20:33;819.60;2150.40
57030;DHT22;42920;45.306;20.448;2023-06-22T11:23:00;819.70;2124.80
57030;DHT22;42920;45.306;20.448;2023-06-22T11:25:25;819.60;2201.60
57030;DHT22;42920;45.306;20.448;2023-06-22T11:27:51;819.60;2227.20
57030;DHT22;42920;45.306;20.448;2023-06-22T11:30:19;819.70;2099.20
57030;DHT22;42920;45.306;20.448;2023-06-22T11:32:45;819.60;2124.80
57030;DHT22;42920;45.306;20.448;2023-06-22T11:35:10;819.80;2073.60
57030;DHT22;42920;45.306;20.448;2023-06-22T11:37:36;820.00;2227.20
57030;DHT22;42920;45.306;20.448;2023-06-22T11:40:02;820.10;2099.20
57030;DHT22;42920;45.306;20.448;2023-06-22T11:42:30;820.10;2124.80
57030;DHT22;42920;45.306;20.448;2023-06-22T11:44:56;819.80;2048.00
57030;DHT22;42920;45.306;20.448;2023-06-22T11:47:22;819.80;2099.20
57030;DHT22;42920;45.306;20.448;2023-06-22T11:49:47;820.00;2073.60
57030;DHT22;42920;45.306;20.448;2023-06-22T11:52:13;820.10;2073.60
57030;DHT22;42920;45.306;20.448;2023-06-22T11:54:39;820.10;2124.80
57030;DHT22;42920;45.306;20.448;2023-06-22T11:57:05;844.90;2176.00
57030;DHT22;42920;45.306;20.448;2023-06-22T11:59:30;845.10;2124.80
57030;DHT22;42920;45.306;20.448;2023-06-22T12:01:57;844.90;2022.40
57030;DHT22;42920;45.306;20.448;2023-06-22T12:04:23;845.10;1996.80
57030;DHT22;42920;45.306;20.448;2023-06-22T12:06:49;845.40;2099.20
57030;DHT22;42920;45.306;20.448;2023-06-22T12:09:15;845.20;1945.60
57030;DHT22;42920;45.306;20.448;2023-06-22T12:11:40;845.40;2201.60
57030;DHT22;42920;45.306;20.448;2023-06-22T12:14:06;845.40;1996.80
57030;DHT22;42920;45.306;20.448;2023-06-22T12:16:32;845.50;1920.00
57030;DHT22;42920;45.306;20.448;2023-06-22T12:18:59;845.50;2022.40
57030;DHT22;42920;45.306;20.448;2023-06-22T12:21:24;845.70;2073.60
57030;DHT22;42920;45.306;20.448;2023-06-22T12:23:50;845.70;1920.00
57030;DHT22;42920;45.306;20.448;2023-06-22T12:26:16;845.70;1996.80
57030;DHT22;42920;45.306;20.448;2023-06-22T12:28:41;870.40;1920.00
57030;DHT22;42920;45.306;20.448;2023-06-22T12:31:07;870.60;1945.60
57030;DHT22;42920;45.306;20.448;2023-06-22T12:33:33;870.50;1920.00
57030;DHT22;42920;45.306;20.448;2023-06-22T12:35:58;870.50;2022.40
57030;DHT22;42920;45.306;20.448;2023-06-22T12:38:24;870.40;1868.80
57030;DHT22;42920;45.306;20.448;2023-06-22T12:40:51;870.50;1920.00
57030;DHT22;42920;45.306;20.448;2023-06-22T12:43:17;870.70;1894.40
57030;DHT22;42920;45.306;20.448;2023-06-22T12:45:43;870.70;1868.80
57030;DHT22;42920;45.306;20.448;2023-06-22T12:48:09;870.70;1792.00
57030;DHT22;42920;45.306;20.448;2023-06-22T12:50:35;870.90;1868.80
57030;DHT22;42920;45.306;20.448;2023-06-22T12:53:00;870.70;1817.60
57030;DHT22;42920;45.306;20.448;2023-06-22T12:55:28;870.90;1792.00
57030;DHT22;42920;45.306;20.448;2023-06-22T12:57:53;870.70;1766.40
57030;DHT22;42920;45.306;20.448;2023-06-22T13:00:19;870.90;1792.00
57030;DHT22;42920;45.306;20.448;2023-06-22T13:02:45;871.10;1868.80
57030;DHT22;42920;45.306;20.448;2023-06-22T13:05:11;870.90;1868.80
57030;DHT22;42920;45.306;20.448;2023-06-22T13:07:36;870.80;1689.60
57030;DHT22;42920;45.306;20.448;2023-06-22T13:10:03;870.90;1766.40
57030;DHT22;42920;45.306;20.448;2023-06-22T13:12:28;871.20;1689.60
57030;DHT22;42920;45.306;20.448;2023-06-22T13:14:54;870.90;1766.40
57030;DHT22;42920;45.306;20.448;2023-06-22T13:17:20;871.10;1715.20
57030;DHT22;42920;45.306;20.448;2023-06-22T13:19:46;870.90;1766.40
57030;DHT22;42920;45.306;20.448;2023-06-22T13:24:53;870.90;1740.80
57030;DHT22;42920;45.306;20.448;2023-06-22T13:27:19;870.70;1689.60
57030;DHT22;42920;45.306;20.448;2023-06-22T13:29:44;870.90;1664.00
57030;DHT22;42920;45.306;20.448;2023-06-22T13:32:10;871.10;1740.80
57030;DHT22;42920;45.306;20.448;2023-06-22T13:34:36;871.20;1766.40
57030;DHT22;42920;45.306;20.448;2023-06-22T13:37:01;870.90;1740.80
57030;DHT22;42920;45.306;20.448;2023-06-22T13:39:27;871.10;1664.00
57030;DHT22;42920;45.306;20.448;2023-06-22T13:41:52;870.80;1689.60
57030;DHT22;42920;45.306;20.448;2023-06-22T13:44:18;870.90;1766.40
57030;DHT22;42920;45.306;20.448;2023-06-22T13:46:44;870.90;1792.00
57030;DHT22;42920;45.306;20.448;2023-06-22T13:49:09;870.90;1766.40
57030;DHT22;42920;45.306;20.448;2023-06-22T13:51:36;870.90;1766.40
57030;DHT22;42920;45.306;20.448;2023-06-22T13:54:01;870.80;1715.20
57030;DHT22;42920;45.306;20.448;2023-06-22T13:56:27;870.90;1715.20
57030;DHT22;42920;45.306;20.448;2023-06-22T13:58:53;870.90;1792.00
57030;DHT22;42920;45.306;20.448;2023-06-22T14:01:18;870.90;1766.40
57030;DHT22;42920;45.306;20.448;2023-06-22T14:03:44;870.80;1792.00
57030;DHT22;42920;45.306;20.448;2023-06-22T14:06:12;870.90;1715.20
57030;DHT22;42920;45.306;20.448;2023-06-22T14:08:38;870.90;1740.80
57030;DHT22;42920;45.306;20.448;2023-06-22T14:11:03;870.90;1766.40
57030;DHT22;42920;45.306;20.448;2023-06-22T14:13:29;870.90;1766.40
57030;DHT22;42920;45.306;20.448;2023-06-22T14:15:55;870.90;1766.40
57030;DHT22;42920;45.306;20.448;2023-06-22T14:18:21;871.10;1740.80
57030;DHT22;42920;45.306;20.448;2023-06-22T14:20:48;870.80;1715.20
57030;DHT22;42920;45.306;20.448;2023-06-22T14:23:14;870.70;1689.60
57030;DHT22;42920;45.306;20.448;2023-06-22T14:25:40;870.70;1740.80
57030;DHT22;42920;45.306;20.448;2023-06-22T14:28:06;870.70;1792.00
57030;DHT22;42920;45.306;20.448;2023-06-22T14:30:31;870.80;1843.20
57030;DHT22;42920;45.306;20.448;2023-06-22T14:32:57;870.70;1817.60
57030;DHT22;42920;45.306;20.448;2023-06-22T14:35:23;870.80;1868.80
57030;DHT22;42920;45.306;20.448;2023-06-22T14:37:50;870.60;1894.40
57030;DHT22;42920;45.306;20.448;2023-06-22T14:40:15;870.70;1894.40
57030;DHT22;42920;45.306;20.448;2023-06-22T14:42:41;870.50;1894.40
57030;DHT22;42920;45.306;20.448;2023-06-22T14:45:07;845.70;1868.80
57030;DHT22;42920;45.306;20.448;2023-06-22T14:47:33;845.70;1894.40
57030;DHT22;42920;45.306;20.448;2023-06-22T14:49:59;845.70;1920.00
57030;DHT22;42920;45.306;20.448;2023-06-22T14:52:26;845.70;1971.20
57030;DHT22;42920;45.306;20.448;2023-06-22T14:54:52;845.70;1945.60
57030;DHT22;42920;45.306;20.448;2023-06-22T14:57:19;845.50;1971.20
57030;DHT22;42920;45.306;20.448;2023-06-22T14:59:46;845.50;1971.20
57030;DHT22;42920;45.306;20.448;2023-06-22T15:02:12;845.60;1971.20
57030;DHT22;42920;45.306;20.448;2023-06-22T15:04:38;845.60;1971.20
57030;DHT22;42920;45.306;20.448;2023-06-22T15:07:04;845.60;1920.00